Time;durP1;ratioP1;P1;durP2;ratioP2;P2;SDS_P1;SDS_P2;PMS_P1;PMS_P2;Temp;Humidity;BMP_temperature;BMP_pressure;BME280_temperature;BME280_humidity;BME280_pressure;Samples;Min_cycle;Max_cycle;Signal;HPM_P1;HPM_P2
2021/09/17 00:02:21;;;;;;;0.27;0.27;;;15.30;99.90;;;;;;5110580;28;20195;-82
2021/09/17 00:04:47;;;;;;;0.40;0.40;;;15.30;99.90;;;;;;5096278;28;20186;-82
2021/09/17 00:07:12;;;;;;;0.87;0.40;;;15.30;99.90;;;;;;5102920;28;20296;-82
2021/09/17 00:09:38;;;;;;;0.40;0.30;;;15.30;99.90;;;;;;5093684;28;20287;-82
2021/09/17 00:12:04;;;;;;;0.40;0.40;;;15.20;99.90;;;;;;5096552;28;20182;-82
2021/09/17 00:14:29;;;;;;;0.77;0.53;;;15.10;99.90;;;;;;5104218;28;20186;-82
2021/09/17 00:16:55;;;;;;;0.30;0.30;;;15.10;99.90;;;;;;5098606;28;20537;-82
2021/09/17 00:19:21;;;;;;;0.73;0.60;;;15.10;99.90;;;;;;5105087;28;20189;-82
2021/09/17 00:21:46;;;;;;;0.50;0.33;;;15.00;99.90;;;;;;5096791;28;20196;-82
2021/09/17 00:24:12;;;;;;;0.37;0.30;;;15.10;99.90;;;;;;5095740;28;20187;-82
2021/09/17 00:26:38;;;;;;;0.30;0.30;;;15.00;99.90;;;;;;5097837;28;20209;-82
2021/09/17 00:29:03;;;;;;;0.10;0.10;;;14.90;99.90;;;;;;5102920;28;20175;-82
2021/09/17 00:31:29;;;;;;;0.10;0.10;;;14.90;99.90;;;;;;5095919;28;20210;-82
2021/09/17 00:33:54;;;;;;;1.07;0.37;;;14.90;99.90;;;;;;5100072;28;20569;-82
2021/09/17 00:36:20;;;;;;;0.20;0.20;;;14.90;99.90;;;;;;5101633;28;20181;-82
2021/09/17 00:38:45;;;;;;;0.67;0.67;;;14.90;99.90;;;;;;5095210;28;20196;-82
2021/09/17 00:41:11;;;;;;;0.20;0.20;;;14.90;99.90;;;;;;5082032;28;20295;-82
2021/09/17 00:43:40;;;;;;;0.10;0.10;;;14.90;99.90;;;;;;5089936;28;20185;-81
2021/09/17 00:46:06;;;;;;;0.23;0.23;;;14.90;99.90;;;;;;5078425;28;20183;-82
2021/09/17 00:48:32;;;;;;;0.27;0.27;;;14.90;99.90;;;;;;5087539;28;20191;-82
2021/09/17 00:50:58;;;;;;;0.30;0.20;;;14.90;99.90;;;;;;5086983;28;20191;-83
2021/09/17 00:53:24;;;;;;;0.30;0.30;;;14.90;99.90;;;;;;5075608;28;20177;-82
2021/09/17 00:55:50;;;;;;;0.40;0.40;;;14.90;99.90;;;;;;5082123;28;20183;-82
2021/09/17 00:58:15;;;;;;;0.33;0.33;;;14.90;99.90;;;;;;5080436;28;20189;-82
2021/09/17 01:00:41;;;;;;;0.30;0.30;;;14.90;99.90;;;;;;5081390;28;20207;-82
2021/09/17 01:03:07;;;;;;;0.30;0.30;;;14.90;99.90;;;;;;5083888;28;20176;-81
2021/09/17 01:05:34;;;;;;;0.30;0.30;;;14.90;99.90;;;;;;5083114;28;20662;-82
2021/09/17 01:07:59;;;;;;;0.67;0.30;;;14.90;99.90;;;;;;5077268;28;20196;-82
2021/09/17 01:10:25;;;;;;;0.20;0.20;;;14.90;99.90;;;;;;5086464;28;20214;-82
2021/09/17 01:12:51;;;;;;;0.30;0.27;;;14.80;99.90;;;;;;5089994;28;20661;-82
2021/09/17 01:15:17;;;;;;;0.73;0.43;;;14.90;99.90;;;;;;5081661;28;20185;-82
2021/09/17 01:17:44;;;;;;;0.40;0.40;;;14.80;99.90;;;;;;5086949;28;20181;-82
2021/09/17 01:20:14;;;;;;;0.30;0.30;;;14.80;99.90;;;;;;5072971;28;20216;-82
2021/09/17 01:22:40;;;;;;;0.40;0.40;;;14.80;99.90;;;;;;5086170;28;20185;-80
2021/09/17 01:25:08;;;;;;;0.97;0.67;;;14.80;99.90;;;;;;5075913;28;20186;-80
2021/09/17 01:27:33;;;;;;;0.70;0.53;;;14.80;99.90;;;;;;5077006;28;20220;-80
2021/09/17 01:29:59;;;;;;;0.87;0.60;;;14.80;99.90;;;;;;5085892;28;20224;-80
2021/09/17 01:32:24;;;;;;;1.30;0.50;;;14.70;99.90;;;;;;5087509;28;20698;-81
2021/09/17 01:34:50;;;;;;;0.30;0.30;;;14.70;99.90;;;;;;5081514;28;20628;-81
2021/09/17 01:37:16;;;;;;;0.30;0.20;;;14.80;99.90;;;;;;5086308;28;20261;-80
2021/09/17 01:39:42;;;;;;;0.30;0.23;;;14.70;99.90;;;;;;5103311;28;20244;-80
2021/09/17 01:42:08;;;;;;;0.53;0.47;;;14.60;99.90;;;;;;5084706;28;20182;-80
2021/09/17 01:44:38;;;;;;;0.40;0.20;;;14.60;99.90;;;;;;5082010;28;20186;-80
2021/09/17 01:47:05;;;;;;;1.07;0.50;;;14.60;99.90;;;;;;5092745;28;20254;-80
2021/09/17 01:49:31;;;;;;;0.27;0.27;;;14.60;99.90;;;;;;5085273;28;20192;-80
2021/09/17 01:51:57;;;;;;;0.40;0.40;;;14.60;99.90;;;;;;5088733;28;20253;-80
2021/09/17 01:54:22;;;;;;;0.43;0.43;;;14.50;99.90;;;;;;5083927;28;20299;-80
2021/09/17 01:56:48;;;;;;;0.60;0.57;;;14.50;99.90;;;;;;5090512;28;20189;-80
2021/09/17 01:59:13;;;;;;;0.40;0.40;;;14.50;99.90;;;;;;5082091;28;20600;-80
2021/09/17 02:01:39;;;;;;;0.93;0.50;;;14.50;99.90;;;;;;5089009;28;20200;-80
2021/09/17 02:04:04;;;;;;;0.63;0.63;;;14.50;99.90;;;;;;5080937;28;20276;-80
2021/09/17 02:06:30;;;;;;;0.70;0.50;;;14.50;99.90;;;;;;5078120;28;20658;-80
2021/09/17 02:08:56;;;;;;;0.30;0.30;;;14.40;99.90;;;;;;5087915;28;20799;-80
2021/09/17 02:11:23;;;;;;;0.67;0.30;;;14.40;99.90;;;;;;5083676;28;20281;-80
2021/09/17 02:13:48;;;;;;;0.30;0.30;;;14.40;99.90;;;;;;5083454;28;20191;-80
2021/09/17 02:16:14;;;;;;;0.83;0.83;;;14.40;99.90;;;;;;5083877;28;20189;-79
2021/09/17 02:18:39;;;;;;;0.20;0.20;;;14.40;99.90;;;;;;5085132;28;20227;-80
2021/09/17 02:21:05;;;;;;;0.50;0.40;;;14.40;99.90;;;;;;5085043;28;20203;-80
2021/09/17 02:23:31;;;;;;;0.30;0.20;;;14.30;99.90;;;;;;5078376;28;20173;-80
2021/09/17 02:25:56;;;;;;;0.13;0.13;;;14.30;99.90;;;;;;5080271;28;20189;-80
2021/09/17 02:28:22;;;;;;;0.33;0.33;;;14.30;99.90;;;;;;5083045;28;20197;-79
2021/09/17 02:30:48;;;;;;;0.60;0.60;;;14.30;99.90;;;;;;5084758;28;20228;-80
2021/09/17 02:33:14;;;;;;;0.40;0.40;;;14.20;99.90;;;;;;5083166;28;20230;-79
2021/09/17 02:35:40;;;;;;;0.50;0.50;;;14.20;99.90;;;;;;5065669;28;20185;-80
2021/09/17 02:38:05;;;;;;;0.40;0.40;;;14.20;99.90;;;;;;5082210;28;20176;-80
2021/09/17 02:40:31;;;;;;;0.43;0.27;;;14.20;99.90;;;;;;5072649;28;20213;-79
2021/09/17 02:43:00;;;;;;;0.20;0.20;;;14.30;99.90;;;;;;5085434;28;20181;-80
2021/09/17 02:45:25;;;;;;;0.40;0.40;;;14.20;99.90;;;;;;5069877;28;20193;-80
2021/09/17 02:47:51;;;;;;;0.70;0.70;;;14.20;99.90;;;;;;5082075;28;20209;-80
2021/09/17 02:50:17;;;;;;;0.57;0.50;;;13.90;99.90;;;;;;5090703;28;20200;-80
2021/09/17 02:52:42;;;;;;;0.10;0.10;;;13.90;99.90;;;;;;5065175;28;20264;-80
2021/09/17 02:55:09;;;;;;;0.83;0.50;;;13.90;99.90;;;;;;5077875;28;20180;-80
2021/09/17 02:57:39;;;;;;;0.20;0.20;;;13.90;99.90;;;;;;5081190;28;20210;-80
2021/09/17 03:00:07;;;;;;;0.60;0.60;;;14.00;99.90;;;;;;5080584;28;20232;-79
2021/09/17 03:02:33;;;;;;;0.10;0.10;;;14.10;99.90;;;;;;5076219;28;20186;-80
2021/09/17 03:04:58;;;;;;;0.40;0.40;;;14.10;99.90;;;;;;5077458;28;20191;-80
2021/09/17 03:07:24;;;;;;;0.37;0.30;;;14.10;99.90;;;;;;5078205;28;20287;-80
2021/09/17 03:09:49;;;;;;;0.30;0.30;;;14.10;99.90;;;;;;5075700;28;20204;-80
2021/09/17 03:12:15;;;;;;;0.20;0.20;;;14.10;99.90;;;;;;5080566;28;20231;-80
2021/09/17 03:14:41;;;;;;;1.07;0.40;;;14.10;99.90;;;;;;5073962;28;20187;-80
2021/09/17 03:17:07;;;;;;;0.50;0.50;;;14.10;99.90;;;;;;5087599;28;20569;-80
2021/09/17 03:19:32;;;;;;;0.63;0.30;;;14.00;99.90;;;;;;5080956;28;20186;-80
2021/09/17 03:22:00;;;;;;;0.50;0.20;;;13.90;99.90;;;;;;5080939;28;20177;-80
2021/09/17 03:24:26;;;;;;;0.63;0.50;;;13.80;99.90;;;;;;5075267;28;20192;-82
2021/09/17 03:26:52;;;;;;;0.73;0.73;;;13.70;99.90;;;;;;5069932;28;20255;-82
2021/09/17 03:29:18;;;;;;;0.50;0.37;;;13.40;99.90;;;;;;5080854;28;20686;-82
2021/09/17 03:31:43;;;;;;;4.23;0.60;;;13.30;99.90;;;;;;5081815;28;20250;-81
2021/09/17 03:34:09;;;;;;;0.50;0.50;;;13.10;99.90;;;;;;5066767;28;20318;-81
2021/09/17 03:36:42;;;;;;;0.20;0.20;;;13.10;99.90;;;;;;5082047;28;20196;-81
2021/09/17 03:39:11;;;;;;;0.30;0.30;;;13.10;99.90;;;;;;5077443;28;20207;-82
2021/09/17 03:41:37;;;;;;;0.70;0.70;;;13.30;99.90;;;;;;5083126;28;20197;-82
2021/09/17 03:44:03;;;;;;;0.20;0.20;;;13.20;99.90;;;;;;5073331;28;20189;-82
2021/09/17 03:46:29;;;;;;;0.30;0.30;;;13.30;99.90;;;;;;5086030;28;20207;-81
2021/09/17 03:48:54;;;;;;;0.90;0.90;;;13.40;99.90;;;;;;5085579;28;20243;-82
2021/09/17 03:51:20;;;;;;;0.40;0.23;;;13.50;99.90;;;;;;5086520;28;20673;-82
2021/09/17 03:53:46;;;;;;;0.70;0.60;;;13.50;99.90;;;;;;5083988;28;20216;-82
2021/09/17 03:56:11;;;;;;;0.30;0.30;;;13.40;99.90;;;;;;5066742;28;20217;-81
2021/09/17 03:58:37;;;;;;;0.40;0.40;;;13.20;99.90;;;;;;5084328;28;20184;-79
2021/09/17 04:01:02;;;;;;;1.27;0.73;;;13.10;99.90;;;;;;5072192;28;20216;-80
2021/09/17 04:03:28;;;;;;;0.33;0.33;;;13.10;99.90;;;;;;5082334;28;20180;-80
2021/09/17 04:05:53;;;;;;;0.53;0.30;;;13.10;99.90;;;;;;5082284;28;20707;-80
2021/09/17 04:08:19;;;;;;;0.47;0.47;;;13.10;99.90;;;;;;5079726;28;20256;-80
2021/09/17 04:10:45;;;;;;;0.10;0.10;;;13.20;99.90;;;;;;5077203;28;20255;-81
2021/09/17 04:13:10;;;;;;;0.27;0.27;;;13.20;99.90;;;;;;5084609;28;20188;-81
2021/09/17 04:15:36;;;;;;;0.40;0.30;;;13.10;99.90;;;;;;5085442;28;20547;-80
2021/09/17 04:18:01;;;;;;;0.10;0.10;;;13.20;99.90;;;;;;5080185;28;20230;-80
2021/09/17 04:20:27;;;;;;;0.20;0.20;;;13.20;99.90;;;;;;5086449;28;20212;-80
2021/09/17 04:22:52;;;;;;;0.17;0.17;;;13.20;99.90;;;;;;5090744;28;20225;-80
2021/09/17 04:25:18;;;;;;;0.33;0.33;;;13.20;99.90;;;;;;5079849;28;20195;-80
2021/09/17 04:27:44;;;;;;;0.23;0.20;;;13.20;99.90;;;;;;5089515;28;20216;-80
2021/09/17 04:30:12;;;;;;;0.20;0.20;;;13.30;99.90;;;;;;5076394;28;20208;-80
2021/09/17 04:32:38;;;;;;;0.40;0.40;;;13.30;99.90;;;;;;5089785;28;20177;-80
2021/09/17 04:35:04;;;;;;;0.30;0.30;;;13.30;99.90;;;;;;5074388;28;20192;-80
2021/09/17 04:37:30;;;;;;;0.73;0.50;;;13.30;99.90;;;;;;5078919;28;20188;-80
2021/09/17 04:39:55;;;;;;;0.20;0.20;;;13.30;99.90;;;;;;5085788;28;20626;-80
2021/09/17 04:42:21;;;;;;;0.50;0.30;;;13.40;99.90;;;;;;5086537;28;20191;-80
2021/09/17 04:44:46;;;;;;;0.37;0.37;;;13.40;99.90;;;;;;5084089;28;20190;-80
2021/09/17 04:47:13;;;;;;;0.70;0.70;;;13.40;99.90;;;;;;5085371;28;20196;-80
2021/09/17 04:49:38;;;;;;;1.83;0.20;;;13.40;99.90;;;;;;5086009;28;20181;-80
2021/09/17 04:52:04;;;;;;;0.30;0.30;;;13.40;99.90;;;;;;5077751;28;20191;-80
2021/09/17 04:54:29;;;;;;;0.20;0.20;;;13.40;99.90;;;;;;5082733;28;20178;-80
2021/09/17 04:56:55;;;;;;;0.20;0.20;;;13.40;99.90;;;;;;5077532;28;20177;-80
2021/09/17 04:59:21;;;;;;;0.30;0.30;;;13.40;99.90;;;;;;5079140;28;20184;-80
2021/09/17 05:01:47;;;;;;;0.20;0.20;;;13.30;99.90;;;;;;5084696;28;20820;-80
2021/09/17 05:04:13;;;;;;;0.20;0.20;;;13.30;99.90;;;;;;5087155;28;20217;-80
2021/09/17 05:06:38;;;;;;;0.13;0.13;;;13.40;99.90;;;;;;5086217;28;20200;-80
2021/09/17 05:09:04;;;;;;;1.20;1.03;;;13.30;99.90;;;;;;5089616;28;20183;-81
2021/09/17 05:11:29;;;;;;;0.37;0.37;;;13.10;99.90;;;;;;5087330;28;20676;-80
2021/09/17 05:13:55;;;;;;;0.20;0.20;;;13.20;99.90;;;;;;5080761;28;20185;-81
2021/09/17 05:16:21;;;;;;;0.20;0.20;;;13.30;99.90;;;;;;5085913;28;20176;-81
2021/09/17 05:18:47;;;;;;;0.30;0.30;;;13.10;99.90;;;;;;5089870;28;20195;-79
2021/09/17 05:21:13;;;;;;;1.60;0.67;;;12.90;99.90;;;;;;5084751;28;20197;-79
2021/09/17 05:23:39;;;;;;;0.50;0.50;;;12.90;99.90;;;;;;5084545;28;20181;-79
2021/09/17 05:26:06;;;;;;;0.30;0.30;;;13.00;99.90;;;;;;5079868;28;20696;-79
2021/09/17 05:28:33;;;;;;;0.20;0.20;;;13.00;99.90;;;;;;5093289;28;20190;-79
2021/09/17 05:30:58;;;;;;;0.10;0.10;;;12.90;99.90;;;;;;5062439;28;20196;-83
2021/09/17 05:33:24;;;;;;;0.20;0.20;;;13.00;99.90;;;;;;5087521;28;20213;-81
2021/09/17 05:35:50;;;;;;;0.50;0.50;;;13.00;99.90;;;;;;5085363;28;20175;-81
2021/09/17 05:38:15;;;;;;;0.40;0.40;;;13.00;99.90;;;;;;5075870;28;20184;-81
2021/09/17 05:40:41;;;;;;;0.10;0.10;;;13.00;99.90;;;;;;5081400;28;20313;-80
2021/09/17 05:43:07;;;;;;;0.70;0.37;;;13.00;99.90;;;;;;5090248;28;20190;-80
2021/09/17 05:45:32;;;;;;;0.40;0.40;;;13.00;99.90;;;;;;5077790;28;20181;-80
2021/09/17 05:47:58;;;;;;;0.20;0.20;;;13.00;99.90;;;;;;5078109;28;20208;-80
2021/09/17 05:50:23;;;;;;;0.20;0.20;;;13.00;99.90;;;;;;5085039;28;20584;-79
2021/09/17 05:52:49;;;;;;;0.10;0.10;;;13.10;99.90;;;;;;5078488;28;20185;-80
2021/09/17 05:55:15;;;;;;;0.30;0.20;;;13.10;99.90;;;;;;5094375;28;20196;-80
2021/09/17 05:57:40;;;;;;;0.10;0.10;;;13.30;99.90;;;;;;5083500;28;20210;-79
2021/09/17 06:00:08;;;;;;;0.10;0.10;;;13.50;99.90;;;;;;5079780;28;20251;-80
2021/09/17 06:02:34;;;;;;;0.17;0.10;;;13.60;99.90;;;;;;5078275;28;20235;-80
2021/09/17 06:04:59;;;;;;;0.10;0.10;;;13.70;99.90;;;;;;5085962;28;20176;-80
2021/09/17 06:07:25;;;;;;;0.57;0.30;;;13.80;99.90;;;;;;5084585;28;20223;-80
2021/09/17 06:09:50;;;;;;;0.73;0.30;;;13.90;99.90;;;;;;5080940;28;20197;-80
2021/09/17 06:12:16;;;;;;;0.27;0.27;;;14.10;99.90;;;;;;5093839;28;20202;-80
2021/09/17 06:14:42;;;;;;;0.33;0.30;;;14.40;99.90;;;;;;5082657;28;20205;-80
2021/09/17 06:17:07;;;;;;;0.40;0.40;;;14.60;99.90;;;;;;5089942;28;20654;-80
2021/09/17 06:19:33;;;;;;;0.50;0.50;;;14.80;99.90;;;;;;5073491;28;20258;-80
2021/09/17 06:21:58;;;;;;;0.37;0.33;;;14.90;99.90;;;;;;5076885;28;20181;-80
2021/09/17 06:24:24;;;;;;;0.50;0.40;;;15.10;99.90;;;;;;5076899;28;20188;-80
2021/09/17 06:26:50;;;;;;;1.73;0.40;;;15.20;99.90;;;;;;5084395;28;20697;-80
2021/09/17 06:29:15;;;;;;;0.30;0.30;;;15.30;99.90;;;;;;5080609;28;20666;-80
2021/09/17 06:31:41;;;;;;;0.50;0.50;;;15.40;99.90;;;;;;5082201;28;20205;-80
2021/09/17 06:34:07;;;;;;;0.60;0.60;;;15.40;99.90;;;;;;5076139;28;20182;-80
2021/09/17 06:36:33;;;;;;;0.43;0.43;;;15.50;99.90;;;;;;5083574;28;20193;-79
2021/09/17 06:39:02;;;;;;;0.37;0.37;;;15.70;99.90;;;;;;5073405;28;20534;-80
2021/09/17 06:41:29;;;;;;;0.53;0.53;;;15.70;99.90;;;;;;5080070;28;20208;-80
2021/09/17 06:43:55;;;;;;;0.70;0.50;;;15.70;99.90;;;;;;5088137;28;20193;-81
2021/09/17 06:46:21;;;;;;;0.40;0.40;;;15.70;99.90;;;;;;5080098;28;20689;-80
2021/09/17 06:48:46;;;;;;;0.37;0.37;;;15.70;99.90;;;;;;5087223;28;20201;-80
2021/09/17 06:51:12;;;;;;;0.50;0.50;;;15.80;99.90;;;;;;5092234;28;20209;-80
2021/09/17 06:53:37;;;;;;;0.40;0.40;;;15.80;99.90;;;;;;5086454;28;20204;-80
2021/09/17 06:56:03;;;;;;;0.37;0.37;;;15.90;99.90;;;;;;5084184;28;20182;-80
2021/09/17 06:58:31;;;;;;;1.00;0.90;;;15.90;99.90;;;;;;5083297;28;20190;-80
2021/09/17 07:00:57;;;;;;;1.33;0.80;;;15.90;99.90;;;;;;5082096;28;20615;-80
2021/09/17 07:03:23;;;;;;;0.47;0.47;;;15.90;99.90;;;;;;5083588;28;20182;-80
2021/09/17 07:05:48;;;;;;;0.50;0.50;;;15.90;99.90;;;;;;5089108;28;20196;-80
2021/09/17 07:08:15;;;;;;;0.33;0.33;;;15.90;99.90;;;;;;5073531;28;20269;-79
2021/09/17 07:10:40;;;;;;;0.67;0.60;;;15.90;99.90;;;;;;5092168;28;20662;-80
2021/09/17 07:13:07;;;;;;;0.83;0.83;;;16.00;99.90;;;;;;5078634;28;20247;-80
2021/09/17 07:15:34;;;;;;;0.60;0.60;;;16.10;99.90;;;;;;5083746;28;20233;-80
2021/09/17 07:18:02;;;;;;;0.73;0.73;;;16.20;99.90;;;;;;5086427;28;20186;-80
2021/09/17 07:20:27;;;;;;;0.50;0.50;;;16.30;99.90;;;;;;5083379;28;20212;-80
2021/09/17 07:22:53;;;;;;;0.30;0.30;;;16.50;99.90;;;;;;5087171;28;20195;-80
2021/09/17 07:25:19;;;;;;;0.43;0.43;;;16.70;99.90;;;;;;5091762;28;20243;-80
2021/09/17 07:27:45;;;;;;;0.50;0.50;;;16.70;99.90;;;;;;5087613;28;20316;-80
2021/09/17 07:30:11;;;;;;;0.53;0.53;;;16.80;99.90;;;;;;5067119;28;20211;-80
2021/09/17 07:32:37;;;;;;;0.93;0.50;;;16.90;99.90;;;;;;5081938;28;20189;-80
2021/09/17 07:35:04;;;;;;;0.27;0.27;;;16.90;99.90;;;;;;5080021;28;20182;-80
2021/09/17 07:37:29;;;;;;;0.33;0.27;;;17.00;99.90;;;;;;5082852;28;20297;-80
2021/09/17 07:39:55;;;;;;;0.97;0.60;;;17.10;99.90;;;;;;5078680;28;20692;-80
2021/09/17 07:42:21;;;;;;;0.53;0.53;;;17.20;99.90;;;;;;5080850;28;20218;-80
2021/09/17 07:44:46;;;;;;;0.37;0.37;;;17.10;99.90;;;;;;5082871;28;20533;-82
2021/09/17 07:47:12;;;;;;;0.73;0.30;;;17.20;99.90;;;;;;5087148;28;20225;-82
2021/09/17 07:49:37;;;;;;;0.40;0.40;;;17.40;99.90;;;;;;5087034;28;20526;-82
2021/09/17 07:52:03;;;;;;;0.33;0.33;;;17.60;99.90;;;;;;5092342;28;20223;-82
2021/09/17 07:54:29;;;;;;;1.30;0.30;;;17.70;99.90;;;;;;5087908;28;20179;-82
2021/09/17 07:56:55;;;;;;;0.67;0.67;;;17.90;99.90;;;;;;5075474;28;20185;-82
2021/09/17 07:59:21;;;;;;;0.50;0.50;;;18.00;99.90;;;;;;5088926;28;20188;-82
2021/09/17 08:01:46;;;;;;;0.50;0.30;;;18.10;99.90;;;;;;5093269;28;20191;-82
2021/09/17 08:04:12;;;;;;;0.20;0.20;;;18.20;99.90;;;;;;5087793;28;20321;-82
2021/09/17 08:06:38;;;;;;;0.20;0.20;;;18.30;99.90;;;;;;5087793;28;20228;-82
2021/09/17 08:09:06;;;;;;;0.30;0.30;;;18.40;99.90;;;;;;5082467;28;20236;-82
2021/09/17 08:11:32;;;;;;;0.40;0.40;;;18.50;99.90;;;;;;5087807;28;20202;-82
2021/09/17 08:13:58;;;;;;;1.03;0.87;;;18.60;99.90;;;;;;5089026;28;20177;-82
2021/09/17 08:16:23;;;;;;;0.67;0.60;;;18.60;99.90;;;;;;5085154;28;20183;-82
2021/09/17 08:18:49;;;;;;;0.67;0.67;;;18.80;99.90;;;;;;5087921;28;20593;-82
2021/09/17 08:21:15;;;;;;;0.30;0.30;;;18.80;99.90;;;;;;5087690;28;20208;-82
2021/09/17 08:23:41;;;;;;;0.60;0.60;;;19.00;99.90;;;;;;5087204;28;20646;-82
2021/09/17 08:26:07;;;;;;;0.40;0.40;;;19.00;99.90;;;;;;5106696;28;20183;-82
2021/09/17 08:28:33;;;;;;;0.70;0.67;;;18.90;99.90;;;;;;5074345;28;20713;-81
2021/09/17 08:31:01;;;;;;;0.50;0.37;;;19.00;99.90;;;;;;5076741;28;20620;-82
2021/09/17 08:33:27;;;;;;;0.77;0.77;;;19.00;99.90;;;;;;5068069;28;20669;-82
2021/09/17 08:35:53;;;;;;;0.83;0.83;;;19.20;99.90;;;;;;5074031;28;20174;-82
2021/09/17 08:38:19;;;;;;;0.23;0.23;;;19.30;99.90;;;;;;5079517;28;20193;-82
2021/09/17 08:40:44;;;;;;;0.53;0.53;;;19.60;99.90;;;;;;5105828;28;20212;-82
2021/09/17 08:43:10;;;;;;;0.57;0.57;;;19.60;99.90;;;;;;5084837;28;20689;-82
2021/09/17 08:45:36;;;;;;;0.60;0.60;;;19.70;99.90;;;;;;5075111;28;20188;-82
2021/09/17 08:48:02;;;;;;;0.60;0.60;;;19.70;99.90;;;;;;5073612;28;20197;-82
2021/09/17 08:50:29;;;;;;;0.50;0.40;;;19.70;99.90;;;;;;5085646;28;20200;-82
2021/09/17 08:52:55;;;;;;;0.63;0.63;;;19.80;99.90;;;;;;5099847;28;20261;-83
2021/09/17 08:55:21;;;;;;;0.60;0.60;;;19.90;99.90;;;;;;5086501;28;20178;-82
2021/09/17 08:57:47;;;;;;;0.37;0.37;;;20.10;99.90;;;;;;5082026;28;20204;-82
2021/09/17 09:00:25;;;;;;;0.87;0.40;;;20.20;99.90;;;;;;5087712;28;20204;-82
2021/09/17 09:02:54;;;;;;;0.97;0.50;;;20.20;99.90;;;;;;5088637;28;20194;-82
2021/09/17 09:05:32;;;;;;;0.30;0.30;;;20.40;99.90;;;;;;5090662;28;20186;-82
2021/09/17 09:07:59;;;;;;;1.47;1.37;;;20.60;99.90;;;;;;5089344;28;20196;-82
2021/09/17 09:10:26;;;;;;;0.43;0.43;;;20.70;99.90;;;;;;5090868;28;20211;-82
2021/09/17 09:12:54;;;;;;;0.43;0.43;;;20.70;99.90;;;;;;5084808;28;20218;-83
2021/09/17 09:15:25;;;;;;;0.73;0.40;;;20.80;99.90;;;;;;5099529;28;20236;-83
2021/09/17 09:17:51;;;;;;;0.27;0.27;;;21.00;99.90;;;;;;5099125;28;20191;-83
2021/09/17 09:20:28;;;;;;;0.40;0.40;;;21.10;99.90;;;;;;5075889;28;20214;-84
2021/09/17 09:23:15;;;;;;;0.20;0.20;;;21.10;99.90;;;;;;5070733;28;20191;-84
2021/09/17 09:26:00;;;;;;;0.30;0.30;;;21.10;99.90;;;;;;5066689;28;20192;-83
2021/09/17 09:28:33;;;;;;;0.53;0.40;;;21.40;99.90;;;;;;5089261;28;20208;-83
2021/09/17 09:31:05;;;;;;;0.43;0.43;;;21.40;99.90;;;;;;5076342;28;20212;-83
2021/09/17 09:33:34;;;;;;;0.50;0.50;;;21.10;99.90;;;;;;5074438;28;20182;-83
2021/09/17 09:36:06;;;;;;;1.90;0.70;;;20.80;99.90;;;;;;5086865;28;20188;-83
2021/09/17 09:38:35;;;;;;;0.57;0.57;;;21.20;99.90;;;;;;5079165;28;20287;-83
2021/09/17 09:41:03;;;;;;;0.67;0.33;;;21.50;99.90;;;;;;5073473;28;20204;-83
2021/09/17 09:43:33;;;;;;;0.87;0.60;;;21.80;99.90;;;;;;5081203;28;20271;-82
2021/09/17 09:46:30;;;;;;;0.80;0.47;;;22.00;99.90;;;;;;5064491;28;20583;-83
2021/09/17 09:49:10;;;;;;;0.37;0.37;;;21.80;99.90;;;;;;5095011;28;20189;-83
2021/09/17 09:52:00;;;;;;;0.63;0.63;;;22.00;99.90;;;;;;5077740;28;20232;-83
2021/09/17 09:54:31;;;;;;;1.07;0.50;;;22.10;99.90;;;;;;5077934;28;20200;-82
2021/09/17 09:56:58;;;;;;;0.83;0.83;;;22.30;99.90;;;;;;5082920;28;20176;-82
2021/09/17 09:59:29;;;;;;;0.40;0.40;;;22.30;99.90;;;;;;5080496;28;20185;-82
2021/09/17 10:01:57;;;;;;;0.63;0.63;;;22.30;99.90;;;;;;5079940;28;20176;-83
2021/09/17 10:04:24;;;;;;;1.33;0.87;;;22.20;99.90;;;;;;5086908;28;20188;-82
2021/09/17 10:07:06;;;;;;;0.73;0.50;;;22.10;99.90;;;;;;5091309;28;20203;-82
2021/09/17 10:09:35;;;;;;;0.60;0.60;;;22.10;99.90;;;;;;5084563;28;20176;-82
2021/09/17 10:12:12;;;;;;;0.83;0.83;;;22.20;99.90;;;;;;5078959;28;20181;-82
2021/09/17 10:14:41;;;;;;;0.67;0.43;;;22.30;99.90;;;;;;5085582;28;20667;-82
2021/09/17 10:17:20;;;;;;;1.83;0.40;;;22.20;99.90;;;;;;5081496;28;20218;-83
2021/09/17 10:19:47;;;;;;;0.43;0.27;;;22.40;99.90;;;;;;5082145;28;20209;-82
2021/09/17 10:22:35;;;;;;;1.70;1.60;;;22.30;99.90;;;;;;5074012;28;20188;-82
2021/09/17 10:25:11;;;;;;;1.20;0.70;;;22.20;99.90;;;;;;5080522;28;20199;-83
2021/09/17 10:27:42;;;;;;;0.63;0.50;;;22.20;99.90;;;;;;5069709;28;20209;-82
2021/09/17 10:30:14;;;;;;;0.20;0.20;;;22.20;99.90;;;;;;5081190;28;20197;-82
2021/09/17 10:32:44;;;;;;;0.67;0.60;;;22.30;99.90;;;;;;5078520;28;20174;-82
2021/09/17 10:35:13;;;;;;;2.80;0.60;;;22.40;99.90;;;;;;5060225;28;20192;-82
2021/09/17 10:38:23;;;;;;;1.17;0.70;;;22.10;99.90;;;;;;5089808;28;20826;-82
2021/09/17 10:40:59;;;;;;;0.37;0.30;;;22.10;99.90;;;;;;5063144;28;20672;-83
2021/09/17 10:43:38;;;;;;;0.30;0.30;;;22.20;99.90;;;;;;5079960;28;20193;-82
2021/09/17 10:46:07;;;;;;;0.90;0.83;;;22.40;99.90;;;;;;5075626;28;20178;-82
2021/09/17 10:48:42;;;;;;;0.40;0.40;;;22.30;99.90;;;;;;5078617;28;20204;-80
2021/09/17 10:51:09;;;;;;;1.70;0.50;;;22.30;99.90;;;;;;5086893;28;20188;-80
2021/09/17 10:53:41;;;;;;;1.40;0.73;;;22.40;99.90;;;;;;5063540;28;20181;-80
2021/09/17 10:56:12;;;;;;;0.73;0.73;;;22.50;99.90;;;;;;5087645;28;20173;-80
2021/09/17 10:58:39;;;;;;;1.17;0.70;;;22.50;99.90;;;;;;5082419;28;20186;-80
2021/09/17 11:01:09;;;;;;;1.20;0.43;;;22.60;99.90;;;;;;5095853;28;20200;-80
2021/09/17 11:03:47;;;;;;;0.80;0.80;;;22.60;99.90;;;;;;5087463;28;20794;-80
2021/09/17 11:06:22;;;;;;;0.40;0.40;;;22.60;99.90;;;;;;5086420;28;20173;-80
2021/09/17 11:09:02;;;;;;;0.80;0.40;;;22.40;99.90;;;;;;5081586;28;20297;-80
2021/09/17 11:11:41;;;;;;;0.80;0.60;;;22.30;99.90;;;;;;5077058;28;20236;-80
2021/09/17 11:14:30;;;;;;;0.40;0.40;;;22.20;99.90;;;;;;5083046;28;20160;-80
2021/09/17 11:16:56;;;;;;;0.20;0.20;;;22.20;99.90;;;;;;5087912;28;20177;-83
2021/09/17 11:19:21;;;;;;;0.40;0.40;;;22.20;99.90;;;;;;5086593;28;20707;-82
2021/09/17 11:21:49;;;;;;;0.40;0.40;;;22.20;99.90;;;;;;5087824;28;20235;-82
2021/09/17 11:24:21;;;;;;;0.70;0.60;;;22.30;99.90;;;;;;5077596;28;20250;-83
2021/09/17 11:26:49;;;;;;;0.67;0.67;;;22.20;99.90;;;;;;5081145;28;20564;-82
2021/09/17 11:29:17;;;;;;;0.37;0.37;;;22.20;99.90;;;;;;5078943;28;20669;-82
2021/09/17 11:31:47;;;;;;;1.80;0.40;;;22.10;99.90;;;;;;5086729;28;20240;-82
2021/09/17 11:34:16;;;;;;;0.30;0.30;;;22.10;99.90;;;;;;5068571;28;20193;-82
2021/09/17 11:36:52;;;;;;;1.37;0.67;;;22.00;99.90;;;;;;5084674;28;20193;-81
2021/09/17 11:39:31;;;;;;;0.50;0.50;;;22.00;99.90;;;;;;5076430;28;20271;-82
2021/09/17 11:41:59;;;;;;;0.27;0.27;;;21.90;99.90;;;;;;5089917;28;20189;-82
2021/09/17 11:44:36;;;;;;;0.40;0.40;;;21.70;99.90;;;;;;5088682;28;20650;-82
2021/09/17 11:47:04;;;;;;;0.97;0.50;;;21.30;99.90;;;;;;5083806;28;20291;-82
2021/09/17 11:49:33;;;;;;;1.40;0.30;;;21.40;99.90;;;;;;5089900;28;20213;-82
2021/09/17 11:52:04;;;;;;;0.53;0.33;;;21.50;99.90;;;;;;5086831;28;20176;-82
2021/09/17 11:54:30;;;;;;;5.33;0.47;;;21.50;99.90;;;;;;5089211;28;20181;-82
2021/09/17 11:57:02;;;;;;;0.30;0.30;;;21.60;99.90;;;;;;5084541;28;20176;-82
2021/09/17 11:59:43;;;;;;;0.47;0.47;;;21.70;99.90;;;;;;5079837;28;20189;-82
2021/09/17 12:02:12;;;;;;;0.80;0.80;;;21.80;99.90;;;;;;5077119;28;20184;-82
2021/09/17 12:04:40;;;;;;;0.90;0.90;;;21.80;99.90;;;;;;5090552;28;20178;-82
2021/09/17 12:07:06;;;;;;;0.43;0.43;;;21.40;99.90;;;;;;5091354;28;20204;-82
2021/09/17 12:09:32;;;;;;;0.30;0.30;;;21.40;99.90;;;;;;5098339;28;20187;-82
2021/09/17 12:11:58;;;;;;;0.40;0.40;;;20.90;99.90;;;;;;5090527;28;20540;-82
2021/09/17 12:14:23;;;;;;;0.27;0.27;;;20.70;99.90;;;;;;5086812;28;20259;-82
2021/09/17 12:16:49;;;;;;;0.43;0.43;;;20.60;99.90;;;;;;5103488;28;20192;-82
2021/09/17 12:19:15;;;;;;;0.33;0.33;;;20.50;99.90;;;;;;5096057;28;20188;-82
2021/09/17 12:21:40;;;;;;;0.30;0.30;;;20.80;99.90;;;;;;5082879;28;20208;-82
2021/09/17 12:24:23;;;;;;;0.30;0.30;;;20.70;99.90;;;;;;5087934;28;20191;-82
2021/09/17 12:26:58;;;;;;;0.80;0.67;;;20.90;99.90;;;;;;5085401;28;20572;-82
2021/09/17 12:29:24;;;;;;;0.60;0.60;;;21.30;99.90;;;;;;5083464;28;20685;-82
2021/09/17 12:31:50;;;;;;;0.40;0.40;;;21.60;99.90;;;;;;5090046;28;20177;-82
2021/09/17 12:34:17;;;;;;;0.20;0.20;;;21.90;99.90;;;;;;5080208;28;20605;-82
2021/09/17 12:36:52;;;;;;;0.40;0.40;;;22.10;99.90;;;;;;5084107;28;20267;-80
2021/09/17 12:39:24;;;;;;;2.83;0.40;;;22.30;99.90;;;;;;5078594;28;20180;-80
2021/09/17 12:42:10;;;;;;;0.50;0.50;;;22.40;99.90;;;;;;5087065;28;20177;-81
2021/09/17 12:44:40;;;;;;;0.10;0.10;;;22.30;99.90;;;;;;5090972;28;20317;-80
2021/09/17 12:47:06;;;;;;;0.30;0.30;;;22.40;99.90;;;;;;5084819;28;20227;-80
2021/09/17 12:49:32;;;;;;;0.67;0.30;;;22.50;99.90;;;;;;5078897;28;20823;-81
2021/09/17 12:52:01;;;;;;;0.20;0.20;;;22.50;99.90;;;;;;5084609;28;20193;-80